ISK weather

CLOSED İskenderun Airport
İskenderun, Hatay Province, Turkey

Public forecast

Using degrees Celsius for public forecast. Weather courtesy of forecast.io.

Closest aviation weather report (METAR) to İskenderun Airport

Closest report is Hatay Airport, 14.1 nm (26.2 km) SSE. Retrieved 2019/12/11 01:50 UTC (50 minutes ago):

LTDA 110150Z 15003KT 7000 SCT035 BKN120 06/06 Q1019 NOSIG

Closest aviation forecast (TAF) to İskenderun Airport

Closest forecast is İncirlik Air Base, 43.4 nm (80.4 km) NW. Retrieved 2019-12-11 00:03 UTC (3 hours ago):

TAF LTAG 102240Z 1100/1124 02008KT 9999 FEW040 BKN100